^^
Your Local Weather - Clay, NY Station Historical Data
Daily Summary for December 10, 2017 Units:  English    Metric   Both
« Previous Day
Next Day »
Daily Weekly Monthly Yearly Custom
  High: Low: Average:
Temperature: 33.4 °F 23.6 °F 29 °F
Dew Point: 26.2 °F 15.8 °F 22.7 °F
Humidity: 89% 50% 78%
Wind Speed: 8.0mph 0.0mph 3mph
Wind Gust: 15.0mph - -
Wind- - WSW
Pressure: 29.87 in 29.70 in -
Precipitation: 0.00 in    
Historical Graphs
 
 
Tabular Data for December 10, 2017
Time Temperature Dew Point Pressure Wind Wind Speed Wind Gust Humidity Rainfall Rate (Hourly) solar
00:00 23.6 °F 20.6 °F 29.72 in Calm     88% 0.00 in 0 W/m2
00:06 23.9 °F 20.9 °F 29.71 in Calm     88% 0.00 in 0 W/m2
00:12 24.1 °F 21.1 °F 29.71 in Calm     88% 0.00 in 0 W/m2
00:18 24.2 °F 20.9 °F 29.71 in Calm     87% 0.00 in 0 W/m2
00:30 24.1 °F 20.8 °F 29.70 in Calm     87% 0.00 in 0 W/m2
00:36 24.1 °F 20.8 °F 29.70 in Calm     87% 0.00 in 0 W/m2
00:42 24.0 °F 20.7 °F 29.70 in Calm     87% 0.00 in 0 W/m2
00:56 23.8 °F 20.5 °F 29.70 in Calm     87% 0.00 in 0 W/m2
01:00 23.8 °F 20.2 °F 29.70 in Calm     86% 0.00 in 0 W/m2
01:06 24.1 °F 20.5 °F 29.70 in Calm   1.0 mph 86% 0.00 in 0 W/m2
01:12 24.6 °F 20.7 °F 29.70 in Calm     85% 0.00 in 0 W/m2
01:18 25.2 °F 20.5 °F 29.70 in WSW 1.0 mph 2.0 mph 82% 0.00 in 0 W/m2
01:24 25.7 °F 20.4 °F 29.70 in WSW 1.0 mph 1.0 mph 80% 0.00 in 0 W/m2
01:36 26.5 °F 19.6 °F 29.70 in WSW 1.0 mph 3.0 mph 75% 0.00 in 0 W/m2
01:48 26.9 °F 19.1 °F 29.70 in SW 1.0 mph 2.0 mph 72% 0.00 in 0 W/m2
01:54 27.1 °F 18.9 °F 29.71 in SW 1.0 mph 2.0 mph 71% 0.00 in 0 W/m2
02:00 27.2 °F 19.0 °F 29.71 in SW 1.0 mph 1.0 mph 71% 0.00 in 0 W/m2
02:18 27.7 °F 19.2 °F 29.71 in WSW 1.0 mph 5.0 mph 70% 0.00 in 0 W/m2
02:24 27.8 °F 19.3 °F 29.71 in WSW 2.0 mph 3.0 mph 70% 0.00 in 0 W/m2
02:36 28.3 °F 20.1 °F 29.71 in SW 4.0 mph 5.0 mph 71% 0.00 in 0 W/m2
02:42 28.6 °F 20.7 °F 29.71 in West 4.0 mph 7.0 mph 72% 0.00 in 0 W/m2
02:54 28.7 °F 21.1 °F 29.71 in West 3.0 mph 4.0 mph 73% 0.00 in 0 W/m2
03:00 28.8 °F 20.9 °F 29.72 in WSW 3.0 mph 3.0 mph 72% 0.00 in 0 W/m2
03:12 28.9 °F 21.0 °F 29.72 in WSW 3.0 mph 5.0 mph 72% 0.00 in 0 W/m2
03:24 29.2 °F 21.0 °F 29.72 in WSW 3.0 mph 4.0 mph 71% 0.00 in 0 W/m2
03:30 29.3 °F 21.1 °F 29.72 in West 3.0 mph 8.0 mph 71% 0.00 in 0 W/m2
03:36 29.4 °F 21.2 °F 29.72 in West 3.0 mph 8.0 mph 71% 0.00 in 0 W/m2
03:42 29.5 °F 21.3 °F 29.72 in WSW 3.0 mph 3.0 mph 71% 0.00 in 0 W/m2
03:48 29.5 °F 21.6 °F 29.71 in SW 3.0 mph 3.0 mph 72% 0.00 in 0 W/m2
04:00 29.6 °F 22.0 °F 29.71 in West 3.0 mph 3.0 mph 73% 0.00 in 0 W/m2
04:18 29.6 °F 22.3 °F 29.71 in SW 2.0 mph 5.0 mph 74% 0.00 in 0 W/m2
04:24 29.6 °F 22.6 °F 29.71 in SW 2.0 mph 7.0 mph 75% 0.00 in 0 W/m2
04:36 29.7 °F 23.1 °F 29.71 in WSW 3.0 mph 5.0 mph 76% 0.00 in 0 W/m2
04:42 29.7 °F 23.1 °F 29.71 in WSW 3.0 mph 3.0 mph 76% 0.00 in 0 W/m2
04:48 29.7 °F 23.1 °F 29.71 in SW 3.0 mph 3.0 mph 76% 0.00 in 0 W/m2
04:54 29.6 °F 23.0 °F 29.71 in SW 3.0 mph 4.0 mph 76% 0.00 in 0 W/m2
05:06 29.8 °F 23.2 °F 29.71 in WSW 4.0 mph 5.0 mph 76% 0.00 in 0 W/m2
05:12 29.8 °F 23.5 °F 29.72 in WSW 4.0 mph 6.0 mph 77% 0.00 in 0 W/m2
05:24 29.9 °F 23.6 °F 29.72 in WSW 4.0 mph 5.0 mph 77% 0.00 in 0 W/m2
05:30 29.8 °F 23.5 °F 29.72 in West 4.0 mph 4.0 mph 77% 0.00 in 0 W/m2
05:36 29.9 °F 23.9 °F 29.72 in SSW 4.0 mph 6.0 mph 78% 0.00 in 0 W/m2
05:42 29.8 °F 23.8 °F 29.72 in West 5.0 mph 7.0 mph 78% 0.00 in 0 W/m2
05:54 29.9 °F 24.2 °F 29.72 in SW 4.0 mph 8.0 mph 79% 0.00 in 0 W/m2
06:00 30.0 °F 24.3 °F 29.72 in WSW 6.0 mph 6.0 mph 79% 0.00 in 0 W/m2
06:06 30.0 °F 24.0 °F 29.72 in SW 5.0 mph 6.0 mph 78% 0.00 in 0 W/m2
06:24 30.0 °F 24.0 °F 29.73 in WSW 5.0 mph 12.0 mph 78% 0.00 in 0 W/m2
06:36 30.0 °F 24.0 °F 29.73 in WSW 5.0 mph 7.0 mph 78% 0.00 in 0 W/m2
06:42 29.9 °F 23.9 °F 29.73 in WSW 4.0 mph 10.0 mph 78% 0.00 in 0 W/m2
06:54 30.1 °F 24.1 °F 29.74 in West 4.0 mph 6.0 mph 78% 0.00 in 0 W/m2
07:00 30.0 °F 24.3 °F 29.75 in WSW 4.0 mph 4.0 mph 79% 0.00 in 0 W/m2
07:06 29.9 °F 24.5 °F 29.75 in WSW 5.0 mph 9.0 mph 80% 0.00 in 0 W/m2
07:12 29.6 °F 24.8 °F 29.75 in West 4.0 mph 5.0 mph 82% 0.00 in 0 W/m2
07:20 29.2 °F 25.0 °F 29.76 in West 3.0 mph 3.0 mph 84% 0.00 in 0 W/m2
07:26 29.1 °F 25.2 °F 29.76 in WNW 3.0 mph 3.0 mph 85% 0.00 in 0 W/m2
07:32 29.0 °F 25.3 °F 29.76 in WSW 3.0 mph 5.0 mph 86% 0.00 in 0 W/m2
07:38 29.0 °F 25.3 °F 29.76 in WNW 3.0 mph 5.0 mph 86% 0.00 in 5 W/m2
07:56 29.3 °F 25.6 °F 29.78 in NW 3.0 mph 5.0 mph 86% 0.00 in 12 W/m2
08:02 29.3 °F 25.6 °F 29.78 in WNW 3.0 mph 5.0 mph 86% 0.00 in 19 W/m2
08:14 29.2 °F 25.5 °F 29.78 in West 3.0 mph 4.0 mph 86% 0.00 in 25 W/m2
08:20 29.2 °F 25.5 °F 29.78 in WSW 2.0 mph 4.0 mph 86% 0.00 in 37 W/m2
08:26 29.2 °F 25.5 °F 29.78 in WSW 2.0 mph 4.0 mph 86% 0.00 in 47 W/m2
08:38 29.3 °F 25.6 °F 29.79 in WSW 4.0 mph 6.0 mph 86% 0.00 in 65 W/m2
08:44 29.5 °F 25.8 °F 29.79 in SSW 4.0 mph 6.0 mph 86% 0.00 in 49 W/m2
09:02 29.6 °F 25.9 °F 29.80 in West 3.0 mph 3.0 mph 86% 0.00 in 65 W/m2
09:14 29.7 °F 26.0 °F 29.79 in SW 3.0 mph 4.0 mph 86% 0.00 in 107 W/m2
09:26 29.9 °F 26.2 °F 29.80 in WSW 3.0 mph 8.0 mph 86% 0.00 in 86 W/m2
09:32 30.0 °F 26.0 °F 29.81 in WNW 3.0 mph 4.0 mph 85% 0.00 in 125 W/m2
09:38 30.1 °F 26.1 °F 29.81 in SSW 3.0 mph 4.0 mph 85% 0.00 in 77 W/m2
09:50 30.3 °F 26.0 °F 29.81 in WSW 3.0 mph 9.0 mph 84% 0.00 in 86 W/m2
09:56 30.6 °F 26.1 °F 29.81 in WNW 4.0 mph 9.0 mph 83% 0.00 in 165 W/m2
10:02 31.3 °F 26.1 °F 29.81 in SW 4.0 mph 4.0 mph 81% 0.00 in 163 W/m2
10:08 31.5 °F 25.7 °F 29.81 in SSW 4.0 mph 5.0 mph 79% 0.00 in 202 W/m2
10:14 31.8 °F 25.4 °F 29.81 in West 4.0 mph 5.0 mph 77% 0.00 in 155 W/m2
10:20 31.7 °F 24.7 °F 29.81 in West 4.0 mph 7.0 mph 75% 0.00 in 163 W/m2
10:26 31.6 °F 24.3 °F 29.81 in WSW 5.0 mph 7.0 mph 74% 0.00 in 149 W/m2
10:32 31.5 °F 24.2 °F 29.81 in WSW 6.0 mph 8.0 mph 74% 0.00 in 165 W/m2
10:44 31.8 °F 24.1 °F 29.81 in West 5.0 mph 5.0 mph 73% 0.00 in 183 W/m2
10:50 31.9 °F 24.2 °F 29.82 in WSW 5.0 mph 5.0 mph 73% 0.00 in 230 W/m2
10:56 32.1 °F 24.4 °F 29.82 in West 4.0 mph 5.0 mph 73% 0.00 in 181 W/m2
11:02 31.8 °F 23.8 °F 29.82 in WNW 5.0 mph 8.0 mph 72% 0.00 in 169 W/m2
11:08 31.6 °F 22.6 °F 29.82 in WNW 7.0 mph 11.0 mph 69% 0.00 in 176 W/m2
11:14 31.5 °F 22.5 °F 29.82 in West 6.0 mph 10.0 mph 69% 0.00 in 146 W/m2
11:20 31.3 °F 22.3 °F 29.82 in SW 6.0 mph 7.0 mph 69% 0.00 in 181 W/m2
11:26 31.3 °F 22.6 °F 29.82 in WNW 6.0 mph 7.0 mph 70% 0.00 in 67 W/m2
11:38 30.4 °F 23.4 °F 29.82 in SW 6.0 mph 10.0 mph 75% 0.00 in 93 W/m2
11:44 30.1 °F 23.1 °F 29.81 in WSW 6.0 mph 9.0 mph 75% 0.00 in 88 W/m2
11:50 30.2 °F 22.6 °F 29.82 in SSW 7.0 mph 11.0 mph 73% 0.00 in 70 W/m2
11:56 30.5 °F 22.2 °F 29.82 in WNW 6.0 mph 11.0 mph 71% 0.00 in 118 W/m2
12:02 30.7 °F 21.4 °F 29.81 in WSW 5.0 mph 6.0 mph 68% 0.00 in 165 W/m2
12:08 31.4 °F 21.3 °F 29.81 in West 5.0 mph 8.0 mph 66% 0.00 in 186 W/m2
12:14 31.9 °F 19.6 °F 29.81 in West 6.0 mph 10.0 mph 60% 0.00 in 160 W/m2
12:20 32.6 °F 19.4 °F 29.81 in South 8.0 mph 12.0 mph 58% 0.00 in 533 W/m2
12:26 33.4 °F 19.8 °F 29.81 in SW 7.0 mph 15.0 mph 57% 0.00 in 589 W/m2
12:32 33.0 °F 18.1 °F 29.81 in SW 7.0 mph 12.0 mph 54% 0.00 in 301 W/m2
12:38 32.6 °F 18.6 °F 29.81 in ESE 7.0 mph 12.0 mph 56% 0.00 in 334 W/m2
13:02 32.4 °F 17.6 °F 29.81 in WNW 6.0 mph 6.0 mph 54% 0.00 in 241 W/m2
13:08 32.6 °F 17.8 °F 29.81 in WSW 5.0 mph 6.0 mph 54% 0.00 in 250 W/m2
13:20 32.7 °F 17.0 °F 29.81 in West 5.0 mph 5.0 mph 52% 0.00 in 185 W/m2
13:26 32.5 °F 16.8 °F 29.81 in West 5.0 mph 14.0 mph 52% 0.00 in 151 W/m2
13:32 32.4 °F 15.8 °F 29.81 in WSW 7.0 mph 7.0 mph 50% 0.00 in 165 W/m2
13:38 32.4 °F 16.3 °F 29.81 in WSW 6.0 mph 7.0 mph 51% 0.00 in 128 W/m2
13:44 32.2 °F 16.1 °F 29.81 in WNW 5.0 mph 7.0 mph 51% 0.00 in 139 W/m2
13:56 31.7 °F 16.9 °F 29.81 in WSW 7.0 mph 13.0 mph 54% 0.00 in 132 W/m2
14:02 31.6 °F 17.3 °F 29.81 in West 5.0 mph 7.0 mph 55% 0.00 in 109 W/m2
14:08 31.4 °F 17.1 °F 29.82 in West 5.0 mph 7.0 mph 55% 0.00 in 86 W/m2
14:14 31.2 °F 17.3 °F 29.82 in West 5.0 mph 6.0 mph 56% 0.00 in 65 W/m2
14:22 30.8 °F 17.7 °F 29.82 in West 5.0 mph 5.0 mph 58% 0.00 in 56 W/m2
14:40 30.7 °F 20.0 °F 29.83 in WNW 3.0 mph 4.0 mph 64% 0.00 in 70 W/m2
14:46 30.3 °F 19.9 °F 29.83 in West 5.0 mph 12.0 mph 65% 0.00 in 49 W/m2
14:52 30.1 °F 20.1 °F 29.83 in SW 5.0 mph 7.0 mph 66% 0.00 in 54 W/m2
14:58 30.1 °F 20.5 °F 29.83 in WSW 3.0 mph 7.0 mph 67% 0.00 in 47 W/m2
15:04 30.1 °F 20.5 °F 29.83 in West 3.0 mph 3.0 mph 67% 0.00 in 46 W/m2
15:10 30.1 °F 20.5 °F 29.83 in WSW 3.0 mph 4.0 mph 67% 0.00 in 37 W/m2
15:16 30.0 °F 20.4 °F 29.83 in SSW 3.0 mph 6.0 mph 67% 0.00 in 28 W/m2
15:32 29.8 °F 20.5 °F 29.83 in West 3.0 mph 4.0 mph 68% 0.00 in 16 W/m2
15:38 29.8 °F 20.5 °F 29.83 in WSW 3.0 mph 4.0 mph 68% 0.00 in 14 W/m2
15:44 29.8 °F 20.9 °F 29.83 in SW 3.0 mph 4.0 mph 69% 0.00 in 12 W/m2
15:50 29.7 °F 20.8 °F 29.83 in SW 2.0 mph 4.0 mph 69% 0.00 in 11 W/m2
15:56 29.7 °F 21.1 °F 29.83 in SW 2.0 mph 5.0 mph 70% 0.00 in 7 W/m2
16:02 29.6 °F 21.0 °F 29.83 in SW 3.0 mph 3.0 mph 70% 0.00 in 5 W/m2
16:20 29.3 °F 21.4 °F 29.84 in South 3.0 mph 3.0 mph 72% 0.00 in 0 W/m2
16:26 29.1 °F 21.8 °F 29.84 in SW 3.0 mph 5.0 mph 74% 0.00 in 0 W/m2
16:32 28.9 °F 22.0 °F 29.84 in West 4.0 mph 6.0 mph 75% 0.00 in 0 W/m2
16:38 28.5 °F 22.2 °F 29.84 in SW 4.0 mph 6.0 mph 77% 0.00 in 0 W/m2
16:44 28.3 °F 22.6 °F 29.84 in WSW 3.0 mph 5.0 mph 79% 0.00 in 0 W/m2
16:50 28.1 °F 22.7 °F 29.84 in WSW 2.0 mph 2.0 mph 80% 0.00 in 0 W/m2
16:56 28.0 °F 22.9 °F 29.85 in WSW 2.0 mph 3.0 mph 81% 0.00 in 0 W/m2
17:02 27.9 °F 23.1 °F 29.84 in SSW 2.0 mph 2.0 mph 82% 0.00 in 0 W/m2
17:14 27.7 °F 23.2 °F 29.85 in SW 3.0 mph 4.0 mph 83% 0.00 in 0 W/m2
17:20 27.7 °F 23.5 °F 29.86 in SW 2.0 mph 2.0 mph 84% 0.00 in 0 W/m2
17:26 27.6 °F 23.4 °F 29.86 in SW 2.0 mph 4.0 mph 84% 0.00 in 0 W/m2
17:32 27.6 °F 23.7 °F 29.86 in WSW 2.0 mph 3.0 mph 85% 0.00 in 0 W/m2
17:44 27.5 °F 23.9 °F 29.86 in SW 1.0 mph 5.0 mph 86% 0.00 in 0 W/m2
17:50 27.4 °F 23.8 °F 29.86 in WSW 2.0 mph 6.0 mph 86% 0.00 in 0 W/m2
17:56 27.4 °F 23.8 °F 29.86 in SW 2.0 mph 6.0 mph 86% 0.00 in 0 W/m2
18:08 27.4 °F 24.0 °F 29.86 in SW 1.0 mph 4.0 mph 87% 0.00 in 0 W/m2
18:14 27.4 °F 24.0 °F 29.87 in SW 2.0 mph 3.0 mph 87% 0.00 in 0 W/m2
18:20 27.4 °F 24.0 °F 29.87 in SW 1.0 mph 1.0 mph 87% 0.00 in 0 W/m2
18:32 27.5 °F 24.4 °F 29.87 in SW 1.0 mph 2.0 mph 88% 0.00 in 0 W/m2
18:38 27.5 °F 24.4 °F 29.87 in SW 1.0 mph 3.0 mph 88% 0.00 in 0 W/m2
18:44 27.5 °F 24.4 °F 29.86 in SW 1.0 mph 1.0 mph 88% 0.00 in 0 W/m2
18:50 27.5 °F 24.4 °F 29.87 in SW 1.0 mph 1.0 mph 88% 0.00 in 0 W/m2
18:56 27.6 °F 24.5 °F 29.86 in SW 1.0 mph 4.0 mph 88% 0.00 in 0 W/m2
19:02 27.5 °F 24.4 °F 29.86 in SW 2.0 mph 2.0 mph 88% 0.00 in 0 W/m2
19:08 27.6 °F 24.5 °F 29.86 in SW 1.0 mph 4.0 mph 88% 0.00 in 0 W/m2
19:20 27.6 °F 24.5 °F 29.86 in SW 1.0 mph 1.0 mph 88% 0.00 in 0 W/m2
19:26 27.6 °F 24.8 °F 29.86 in SW 1.0 mph 3.0 mph 89% 0.00 in 0 W/m2
19:32 27.6 °F 24.8 °F 29.86 in SW 1.0 mph 4.0 mph 89% 0.00 in 0 W/m2
19:38 27.5 °F 24.7 °F 29.86 in WSW 1.0 mph 4.0 mph 89% 0.00 in 0 W/m2
19:50 27.5 °F 24.7 °F 29.86 in WSW 1.0 mph 1.0 mph 89% 0.00 in 0 W/m2
19:56 27.5 °F 24.7 °F 29.86 in WSW 1.0 mph 3.0 mph 89% 0.00 in 0 W/m2
20:02 27.5 °F 24.7 °F 29.86 in WSW 1.0 mph 1.0 mph 89% 0.00 in 0 W/m2
20:14 27.5 °F 24.7 °F 29.86 in Calm   1.0 mph 89% 0.00 in 0 W/m2
20:20 27.5 °F 24.7 °F 29.86 in WSW 1.0 mph 4.0 mph 89% 0.00 in 0 W/m2
20:26 27.5 °F 24.7 °F 29.86 in WSW 1.0 mph 4.0 mph 89% 0.00 in 0 W/m2
20:32 27.5 °F 24.7 °F 29.86 in WSW 1.0 mph 1.0 mph 89% 0.00 in 0 W/m2
20:44 27.7 °F 24.9 °F 29.86 in WSW 1.0 mph 3.0 mph 89% 0.00 in 0 W/m2
20:50 27.7 °F 24.9 °F 29.86 in WSW 1.0 mph 4.0 mph 89% 0.00 in 0 W/m2
20:56 27.8 °F 25.0 °F 29.87 in WSW 1.0 mph 4.0 mph 89% 0.00 in 0 W/m2
21:04 27.9 °F 25.1 °F 29.86 in WNW 1.0 mph 2.0 mph 89% 0.00 in 0 W/m2
21:16 28.0 °F 25.2 °F 29.86 in WNW 2.0 mph 3.0 mph 89% 0.00 in 0 W/m2
21:22 28.0 °F 25.2 °F 29.86 in SW 1.0 mph 2.0 mph 89% 0.00 in 0 W/m2
21:34 28.1 °F 25.0 °F 29.86 in WSW 2.0 mph 4.0 mph 88% 0.00 in 0 W/m2
21:40 28.1 °F 25.0 °F 29.86 in WSW 2.0 mph 3.0 mph 88% 0.00 in 0 W/m2
21:46 28.2 °F 25.1 °F 29.86 in West 2.0 mph 3.0 mph 88% 0.00 in 0 W/m2
21:52 28.2 °F 25.1 °F 29.86 in West 1.0 mph 2.0 mph 88% 0.00 in 0 W/m2
21:58 28.1 °F 25.0 °F 29.87 in West 1.0 mph 2.0 mph 88% 0.00 in 0 W/m2
22:04 28.2 °F 25.1 °F 29.87 in West 1.0 mph 4.0 mph 88% 0.00 in 0 W/m2
22:16 28.2 °F 24.8 °F 29.87 in West 1.0 mph 2.0 mph 87% 0.00 in 0 W/m2
22:22 28.2 °F 24.8 °F 29.87 in SW 1.0 mph 2.0 mph 87% 0.00 in 0 W/m2
22:34 28.3 °F 24.9 °F 29.87 in WSW 2.0 mph 4.0 mph 87% 0.00 in 0 W/m2
22:46 28.4 °F 24.7 °F 29.87 in SW 3.0 mph 4.0 mph 86% 0.00 in 0 W/m2
22:52 28.5 °F 24.8 °F 29.87 in West 2.0 mph 3.0 mph 86% 0.00 in 0 W/m2
23:04 28.5 °F 24.8 °F 29.87 in SW 3.0 mph 6.0 mph 86% 0.00 in 0 W/m2
23:16 28.6 °F 24.9 °F 29.87 in WSW 3.0 mph 4.0 mph 86% 0.00 in 0 W/m2
23:22 28.7 °F 24.8 °F 29.87 in SW 3.0 mph 3.0 mph 85% 0.00 in 0 W/m2
23:28 28.8 °F 24.9 °F 29.87 in SSW 3.0 mph 3.0 mph 85% 0.00 in 0 W/m2
23:34 28.8 °F 24.6 °F 29.87 in West 2.0 mph 6.0 mph 84% 0.00 in 0 W/m2
23:40 28.9 °F 24.7 °F 29.87 in SW 3.0 mph 3.0 mph 84% 0.00 in 0 W/m2
23:52 28.9 °F 24.4 °F 29.87 in SW 2.0 mph 2.0 mph 83% 0.00 in 0 W/m2
23:58 28.9 °F 24.4 °F 29.87 in SW 2.0 mph 2.0 mph 83% 0.00 in 0 W/m2
Country Meadow, Clay, NY, USA
Compliments of Weather Underground - 2 mb